createdAt,value
2022-08-31T09:56:40.060Z,112.50
2022-08-31T09:57:42.530Z,112.50
2022-08-31T09:58:39.845Z,112.50
2022-08-31T09:59:39.820Z,112.50
2022-08-31T10:00:39.822Z,112.50
2022-08-31T10:01:39.918Z,112.50
2022-08-31T10:02:39.778Z,112.50
2022-08-31T10:03:39.781Z,112.50
2022-08-31T10:04:40.609Z,112.50
2022-08-31T10:05:39.752Z,112.50
2022-08-31T10:06:39.772Z,112.50
2022-08-31T10:07:39.746Z,106.88
2022-08-31T10:08:39.752Z,101.25
2022-08-31T10:09:39.706Z,106.88
2022-08-31T10:10:40.543Z,95.62
2022-08-31T10:11:39.686Z,101.25
2022-08-31T10:12:39.685Z,112.50
2022-08-31T10:13:39.681Z,112.50
2022-08-31T10:14:39.657Z,112.50
2022-08-31T10:15:39.777Z,112.50
2022-08-31T10:16:39.637Z,118.12
2022-08-31T10:17:39.639Z,118.12
2022-08-31T10:18:39.711Z,112.50
2022-08-31T10:19:46.536Z,112.50
2022-08-31T10:20:39.582Z,118.12
2022-08-31T10:21:39.561Z,118.12
2022-08-31T10:22:40.530Z,118.12
2022-08-31T10:23:39.563Z,118.12
2022-08-31T10:24:39.569Z,118.12
2022-08-31T10:25:39.545Z,118.12
2022-08-31T10:26:39.512Z,123.75
2022-08-31T10:27:39.535Z,123.75
2022-08-31T10:28:39.509Z,123.75
2022-08-31T10:29:39.515Z,123.75
2022-08-31T10:30:40.216Z,129.38
2022-08-31T10:31:39.480Z,135.00
2022-08-31T10:32:46.038Z,140.62
2022-08-31T10:33:39.465Z,151.88
2022-08-31T10:34:39.444Z,157.50
2022-08-31T10:35:39.563Z,163.12
2022-08-31T10:36:39.429Z,168.75
2022-08-31T10:37:39.395Z,174.38
2022-08-31T10:38:39.397Z,180.00
2022-08-31T10:39:39.380Z,180.00
2022-08-31T10:40:39.690Z,174.38
2022-08-31T10:41:39.373Z,168.75
2022-08-31T10:42:39.342Z,168.75
2022-08-31T10:43:39.335Z,168.75
2022-08-31T10:44:39.322Z,168.75
2022-08-31T10:50:51.086Z,185.62
2022-08-31T10:51:22.949Z,191.25
2022-08-31T10:52:22.940Z,196.88
2022-08-31T10:53:22.963Z,191.25
2022-08-31T10:54:22.932Z,196.88
2022-08-31T10:55:22.898Z,196.88
2022-08-31T10:56:24.063Z,191.25
2022-08-31T10:57:25.913Z,185.62
2022-08-31T10:58:23.702Z,191.25
2022-08-31T10:59:22.882Z,180.00
2022-08-31T11:00:22.857Z,168.75
2022-08-31T11:01:23.707Z,180.00
2022-08-31T11:02:22.839Z,191.25
2022-08-31T11:03:25.668Z,185.62
2022-08-31T11:04:22.943Z,180.00
2022-08-31T11:05:22.803Z,191.25
2022-08-31T11:06:22.790Z,208.12
2022-08-31T11:07:25.649Z,213.75
2022-08-31T11:08:22.764Z,219.38
2022-08-31T11:09:23.650Z,208.12
2022-08-31T11:10:22.749Z,196.88
2022-08-31T11:11:22.765Z,185.62
2022-08-31T11:12:22.729Z,185.62
2022-08-31T11:13:22.749Z,185.62
2022-08-31T11:14:22.743Z,185.62
2022-08-31T11:15:22.684Z,191.25
2022-08-31T11:16:22.723Z,191.25
2022-08-31T11:17:22.676Z,180.00
2022-08-31T11:18:22.659Z,196.88
2022-08-31T11:19:22.673Z,202.50
2022-08-31T11:20:22.628Z,213.75
2022-08-31T11:21:22.637Z,213.75
2022-08-31T11:22:23.142Z,247.50
2022-08-31T11:23:23.631Z,258.75
2022-08-31T11:24:22.632Z,213.75
2022-08-31T11:25:22.607Z,208.12
2022-08-31T11:26:22.595Z,196.88
2022-08-31T11:27:22.558Z,180.00
2022-08-31T11:28:22.577Z,208.12
2022-08-31T11:29:22.530Z,196.88
2022-08-31T11:30:22.523Z,208.12
2022-08-31T11:31:22.541Z,247.50
2022-08-31T11:32:22.503Z,241.88
2022-08-31T11:33:23.149Z,230.62
2022-08-31T11:34:22.480Z,208.12
2022-08-31T11:35:22.475Z,191.25
2022-08-31T11:36:22.458Z,180.00
2022-08-31T11:37:22.459Z,168.75
2022-08-31T11:38:22.414Z,168.75
2022-08-31T11:39:22.428Z,168.75
2022-08-31T11:40:22.454Z,174.38
2022-08-31T11:41:22.411Z,174.38
2022-08-31T11:42:22.388Z,168.75
2022-08-31T11:43:22.409Z,163.12
2022-08-31T11:44:22.372Z,163.12
2022-08-31T11:45:22.359Z,163.12
2022-08-31T11:46:22.439Z,163.12
2022-08-31T11:47:22.350Z,163.12
2022-08-31T11:48:22.329Z,157.50
2022-08-31T11:49:22.317Z,157.50
2022-08-31T11:50:22.320Z,163.12
2022-08-31T11:51:22.285Z,185.62
2022-08-31T11:52:22.305Z,230.62
2022-08-31T11:53:22.280Z,168.75
2022-08-31T11:54:22.255Z,163.12
2022-08-31T11:55:22.258Z,196.88
2022-08-31T11:56:22.255Z,213.75
2022-08-31T11:57:22.273Z,225.00
2022-08-31T11:58:22.212Z,230.62
2022-08-31T11:59:22.198Z,225.00
2022-08-31T12:00:22.192Z,225.00
2022-08-31T12:01:22.177Z,219.38
2022-08-31T12:02:22.216Z,213.75
2022-08-31T12:03:22.186Z,208.12
2022-08-31T12:04:22.254Z,202.50
2022-08-31T12:05:22.161Z,196.88
2022-08-31T12:06:28.668Z,196.88
2022-08-31T12:07:22.123Z,196.88
2022-08-31T12:08:22.116Z,196.88
2022-08-31T12:09:22.109Z,202.50
2022-08-31T12:10:26.675Z,208.12
2022-08-31T12:11:25.661Z,185.62
2022-08-31T12:12:22.139Z,174.38
2022-08-31T12:13:36.668Z,213.75
2022-08-31T12:14:24.706Z,213.75
2022-08-31T12:15:24.603Z,208.12
2022-08-31T12:16:36.688Z,213.75
2022-08-31T12:17:22.814Z,219.38
2022-08-31T12:18:21.998Z,225.00
2022-08-31T12:19:21.993Z,225.00
2022-08-31T12:20:21.977Z,230.62
2022-08-31T12:21:21.954Z,230.62
2022-08-31T12:22:21.971Z,180.00
2022-08-31T12:23:30.644Z,236.25
2022-08-31T12:24:23.005Z,225.00
2022-08-31T12:25:21.927Z,225.00
2022-08-31T12:26:21.920Z,230.62
2022-08-31T12:27:21.902Z,236.25
2022-08-31T12:28:23.055Z,241.88
2022-08-31T12:29:22.870Z,247.50
2022-08-31T12:30:21.888Z,247.50
2022-08-31T12:31:21.960Z,247.50
2022-08-31T12:32:21.859Z,247.50
2022-08-31T12:33:28.657Z,247.50
2022-08-31T12:34:23.693Z,247.50
2022-08-31T12:35:21.809Z,253.12
2022-08-31T12:36:22.674Z,253.12
2022-08-31T12:37:21.790Z,258.75
2022-08-31T12:38:21.788Z,157.50
2022-08-31T12:39:22.670Z,202.50
2022-08-31T12:40:21.882Z,185.62
2022-08-31T12:41:25.269Z,140.62
2022-08-31T12:42:21.742Z,135.00
2022-08-31T12:43:21.809Z,140.62
2022-08-31T12:44:21.744Z,202.50
2022-08-31T12:45:21.717Z,253.12
2022-08-31T12:46:21.762Z,258.75
2022-08-31T12:47:24.125Z,264.38
2022-08-31T12:48:21.685Z,270.00
2022-08-31T12:49:21.665Z,275.62
2022-08-31T12:50:24.179Z,286.88
2022-08-31T12:51:21.666Z,298.12
2022-08-31T12:52:21.654Z,303.75
2022-08-31T12:53:22.176Z,298.12
2022-08-31T12:54:22.196Z,286.88
2022-08-31T12:55:21.598Z,275.62
2022-08-31T12:56:21.603Z,270.00
2022-08-31T12:57:26.993Z,270.00
2022-08-31T12:58:22.598Z,270.00
2022-08-31T12:59:22.152Z,275.62
2022-08-31T13:00:21.871Z,281.25
2022-08-31T13:01:21.670Z,281.25
2022-08-31T13:02:21.701Z,168.75
2022-08-31T13:03:21.618Z,180.00
2022-08-31T13:04:24.241Z,157.50
2022-08-31T13:05:21.490Z,163.12
2022-08-31T13:06:21.482Z,174.38
2022-08-31T13:07:43.169Z,303.75
2022-08-31T13:08:21.473Z,303.75
2022-08-31T13:09:21.475Z,303.75
2022-08-31T13:10:21.440Z,286.88
2022-08-31T13:11:23.098Z,275.62
2022-08-31T13:12:49.180Z,163.12
2022-08-31T13:13:21.412Z,157.50
2022-08-31T13:14:21.397Z,157.50
2022-08-31T13:15:21.420Z,157.50
2022-08-31T13:16:21.433Z,146.25
2022-08-31T13:17:24.175Z,135.00
2022-08-31T13:18:21.349Z,123.75
2022-08-31T13:19:21.339Z,118.12
2022-08-31T13:20:21.354Z,118.12
2022-08-31T13:21:22.361Z,112.50
2022-08-31T13:22:21.322Z,118.12
2022-08-31T13:23:22.224Z,118.12
2022-08-31T13:24:22.182Z,191.25
2022-08-31T13:25:21.714Z,146.25
2022-08-31T13:26:22.221Z,174.38
2022-08-31T13:27:24.121Z,264.38
2022-08-31T13:28:21.246Z,281.25
2022-08-31T13:29:21.255Z,292.50
2022-08-31T13:30:21.228Z,292.50
2022-08-31T13:31:22.635Z,309.38
2022-08-31T13:32:21.207Z,309.38
2022-08-31T13:33:22.754Z,298.12
2022-08-31T13:34:22.123Z,286.88
2022-08-31T13:35:21.181Z,275.62
2022-08-31T13:36:22.616Z,275.62
2022-08-31T13:37:22.115Z,275.62
2022-08-31T13:38:21.171Z,281.25
2022-08-31T13:39:21.128Z,275.62
2022-08-31T13:40:21.190Z,275.62
2022-08-31T13:41:22.119Z,275.62
2022-08-31T13:42:21.755Z,270.00
2022-08-31T13:43:21.227Z,270.00
2022-08-31T13:44:21.109Z,275.62
2022-08-31T13:45:22.618Z,270.00
2022-08-31T13:46:21.733Z,264.38
2022-08-31T13:47:21.044Z,264.38
2022-08-31T13:48:21.040Z,258.75
2022-08-31T13:49:21.036Z,264.38
2022-08-31T13:50:21.673Z,264.38
2022-08-31T13:51:20.995Z,281.25
2022-08-31T13:52:20.994Z,292.50
2022-08-31T13:53:26.870Z,292.50
2022-08-31T14:01:33.718Z,275.62
2022-08-31T14:02:36.765Z,275.62
2022-08-31T14:03:33.750Z,275.62
2022-08-31T14:04:33.079Z,270.00
2022-08-31T14:05:33.038Z,264.38
2022-08-31T14:06:33.022Z,241.88
2022-08-31T14:07:34.186Z,208.12
2022-08-31T14:08:34.692Z,101.25
2022-08-31T14:09:33.750Z,101.25
2022-08-31T14:10:34.193Z,253.12
2022-08-31T14:11:32.949Z,247.50
2022-08-31T14:12:32.975Z,247.50
2022-08-31T14:13:32.935Z,247.50
2022-08-31T14:14:34.188Z,247.50
2022-08-31T14:15:34.787Z,247.50
2022-08-31T14:16:33.020Z,241.88
2022-08-31T14:17:32.919Z,236.25
2022-08-31T14:18:32.930Z,213.75
2022-08-31T14:19:32.879Z,146.25
2022-08-31T14:20:32.895Z,163.12
2022-08-31T14:21:32.855Z,225.00
2022-08-31T14:22:32.854Z,236.25
2022-08-31T14:23:33.699Z,230.62
2022-08-31T14:24:34.256Z,225.00
2022-08-31T14:25:35.693Z,225.00
2022-08-31T14:26:32.830Z,236.25
2022-08-31T14:27:32.834Z,236.25
2022-08-31T14:28:33.729Z,236.25
2022-08-31T14:29:32.764Z,236.25
2022-08-31T14:30:33.312Z,241.88
2022-08-31T14:31:33.698Z,236.25
2022-08-31T14:32:33.707Z,236.25
2022-08-31T14:33:32.780Z,236.25
2022-08-31T14:34:32.719Z,236.25
2022-08-31T14:35:33.697Z,236.25
2022-08-31T14:36:32.725Z,230.62
2022-08-31T14:37:33.702Z,230.62
2022-08-31T14:38:32.682Z,236.25
2022-08-31T14:39:33.717Z,230.62
2022-08-31T14:40:32.702Z,230.62
2022-08-31T14:41:32.635Z,230.62
2022-08-31T14:42:33.195Z,230.62
2022-08-31T14:43:32.634Z,230.62
2022-08-31T14:44:33.202Z,230.62
2022-08-31T14:45:35.830Z,225.00
2022-08-31T14:46:33.201Z,225.00
2022-08-31T14:47:32.573Z,225.00
2022-08-31T14:48:33.201Z,219.38
2022-08-31T14:49:36.410Z,219.38
2022-08-31T14:50:32.539Z,213.75
2022-08-31T14:51:32.559Z,213.75
2022-08-31T14:52:33.205Z,208.12
2022-08-31T14:53:33.204Z,208.12
2022-08-31T14:54:32.503Z,202.50
2022-08-31T14:55:32.804Z,202.50
2022-08-31T14:56:33.205Z,196.88
2022-08-31T14:57:33.200Z,196.88
2022-08-31T14:58:32.507Z,191.25
2022-08-31T14:59:32.447Z,191.25
2022-08-31T15:00:32.486Z,191.25
2022-08-31T15:01:32.850Z,185.62
2022-08-31T15:02:32.479Z,185.62
2022-08-31T15:03:33.257Z,185.62
2022-08-31T15:04:37.266Z,191.25
2022-08-31T15:05:33.438Z,185.62
2022-08-31T15:06:32.372Z,185.62
2022-08-31T15:07:34.227Z,185.62
2022-08-31T15:08:38.017Z,185.62
2022-08-31T15:09:36.208Z,185.62
2022-08-31T15:10:36.270Z,185.62
2022-08-31T15:11:35.257Z,191.25
2022-08-31T15:12:33.204Z,191.25
2022-08-31T15:13:32.305Z,196.88
2022-08-31T15:14:32.297Z,191.25
2022-08-31T15:15:32.286Z,185.62
2022-08-31T15:16:38.837Z,174.38
2022-08-31T15:17:32.257Z,163.12
2022-08-31T15:18:32.250Z,163.12
2022-08-31T15:19:32.224Z,157.50
2022-08-31T15:20:32.251Z,157.50
2022-08-31T15:21:32.200Z,151.88
2022-08-31T15:22:32.264Z,146.25
2022-08-31T15:23:32.181Z,146.25
2022-08-31T15:24:32.297Z,140.62
2022-08-31T15:25:32.183Z,140.62
2022-08-31T15:26:32.142Z,140.62
2022-08-31T15:27:32.167Z,123.75
2022-08-31T15:28:32.126Z,135.00
2022-08-31T15:29:32.124Z,135.00
2022-08-31T15:30:32.107Z,135.00
2022-08-31T15:31:32.205Z,129.38
2022-08-31T15:32:32.074Z,129.38
2022-08-31T15:33:32.094Z,129.38
2022-08-31T15:34:32.056Z,129.38
2022-08-31T15:35:32.085Z,129.38
2022-08-31T15:36:32.042Z,123.75
2022-08-31T15:37:32.325Z,123.75
2022-08-31T15:38:32.012Z,123.75
2022-08-31T15:39:32.017Z,123.75
2022-08-31T15:40:35.471Z,123.75
2022-08-31T15:41:35.773Z,118.12
2022-08-31T15:42:31.994Z,118.12
2022-08-31T15:43:34.780Z,118.12
2022-08-31T15:44:35.215Z,118.12
2022-08-31T15:45:34.839Z,118.12
2022-08-31T15:46:31.935Z,112.50
2022-08-31T15:47:32.779Z,112.50
2022-08-31T15:48:31.957Z,112.50
2022-08-31T15:49:31.920Z,112.50
2022-08-31T15:50:32.552Z,112.50
2022-08-31T15:51:31.873Z,112.50
2022-08-31T15:52:32.785Z,112.50
2022-08-31T15:53:31.873Z,112.50
2022-08-31T15:54:31.837Z,112.50
2022-08-31T15:55:32.773Z,106.88
2022-08-31T15:56:32.780Z,106.88
2022-08-31T15:57:31.828Z,106.88
2022-08-31T15:58:31.802Z,106.88
2022-08-31T15:59:31.811Z,106.88
2022-08-31T16:00:31.794Z,106.88
2022-08-31T16:01:31.853Z,106.88
2022-08-31T16:02:31.799Z,106.88
2022-08-31T16:03:34.937Z,106.88
2022-08-31T16:04:31.751Z,106.88
2022-08-31T16:05:31.710Z,106.88
2022-08-31T16:06:31.732Z,106.88
2022-08-31T16:07:32.277Z,106.88
2022-08-31T16:08:31.715Z,106.88
2022-08-31T16:09:31.848Z,106.88
2022-08-31T16:10:31.671Z,106.88
2022-08-31T16:11:32.279Z,106.88
2022-08-31T16:12:31.637Z,106.88
2022-08-31T16:13:31.623Z,106.88
2022-08-31T16:14:31.628Z,101.25
2022-08-31T16:15:32.941Z,101.25
2022-08-31T16:16:31.988Z,101.25
2022-08-31T16:17:34.287Z,95.62
2022-08-31T16:18:31.564Z,95.62
2022-08-31T16:19:35.517Z,95.62
2022-08-31T16:20:31.547Z,95.62
2022-08-31T16:21:31.624Z,90.00
2022-08-31T16:22:38.279Z,90.00
2022-08-31T16:23:31.521Z,90.00
2022-08-31T16:24:31.494Z,90.00
2022-08-31T16:25:41.840Z,90.00
2022-08-31T16:26:32.494Z,90.00
2022-08-31T16:27:31.464Z,90.00
2022-08-31T16:28:31.454Z,84.38
2022-08-31T16:29:31.472Z,84.38
2022-08-31T16:30:31.432Z,84.38
2022-08-31T16:31:31.500Z,84.38
2022-08-31T16:32:31.430Z,84.38
2022-08-31T16:33:34.275Z,84.38
2022-08-31T16:34:31.387Z,84.38
2022-08-31T16:35:34.286Z,78.75
2022-08-31T16:36:31.368Z,78.75
2022-08-31T16:37:31.372Z,78.75
2022-08-31T16:38:32.288Z,78.75
2022-08-31T16:39:32.289Z,78.75
2022-08-31T16:40:31.387Z,78.75
2022-08-31T16:41:31.310Z,78.75
2022-08-31T16:42:34.817Z,78.75
2022-08-31T16:43:31.787Z,78.75
2022-08-31T16:44:36.816Z,78.75
2022-08-31T16:45:32.318Z,73.12
2022-08-31T16:46:40.563Z,73.12
2022-08-31T16:47:32.262Z,73.12
2022-08-31T16:48:31.240Z,73.12
2022-08-31T16:49:31.221Z,67.50
2022-08-31T16:50:31.217Z,67.50
2022-08-31T16:51:31.196Z,67.50
2022-08-31T16:52:31.187Z,67.50
2022-08-31T16:53:31.191Z,67.50
2022-08-31T16:54:31.167Z,67.50
2022-08-31T16:55:31.147Z,61.88
2022-08-31T16:56:31.141Z,61.88
2022-08-31T16:57:31.134Z,61.88
2022-08-31T16:58:51.803Z,61.88
2022-08-31T16:59:32.320Z,61.88
2022-08-31T17:00:37.397Z,61.88
2022-08-31T17:01:31.211Z,56.25
2022-08-31T17:02:31.163Z,56.25
2022-08-31T17:03:31.081Z,56.25
2022-08-31T17:04:54.498Z,56.25
2022-08-31T17:05:32.318Z,56.25
2022-08-31T17:06:31.042Z,56.25
2022-08-31T17:07:31.025Z,56.25
2022-08-31T17:08:31.020Z,56.25
2022-08-31T17:09:31.004Z,56.25
2022-08-31T17:10:30.997Z,56.25
2022-08-31T17:11:31.007Z,50.62
2022-08-31T17:12:30.977Z,50.62
2022-08-31T17:13:30.951Z,50.62
2022-08-31T17:14:30.970Z,50.62
2022-08-31T17:15:33.790Z,50.62
2022-08-31T17:16:30.991Z,50.62
2022-08-31T17:17:31.828Z,50.62
2022-08-31T17:18:30.907Z,50.62
2022-08-31T17:19:30.883Z,50.62
2022-08-31T17:20:30.892Z,45.00
2022-08-31T17:21:34.325Z,45.00
2022-08-31T17:22:33.295Z,45.00
2022-08-31T17:23:31.820Z,45.00
2022-08-31T17:24:30.854Z,45.00
2022-08-31T17:25:30.817Z,45.00
2022-08-31T17:26:30.823Z,45.00
2022-08-31T17:27:30.827Z,45.00
2022-08-31T17:28:30.800Z,45.00
2022-08-31T17:29:30.790Z,45.00
2022-08-31T17:30:30.769Z,39.38
2022-08-31T17:31:31.836Z,39.38
2022-08-31T17:32:30.777Z,39.38
2022-08-31T17:33:37.304Z,39.38
2022-08-31T17:34:30.759Z,39.38
2022-08-31T17:35:30.735Z,39.38
2022-08-31T17:36:33.197Z,39.38
2022-08-31T17:37:31.695Z,39.38
2022-08-31T17:38:30.716Z,39.38
2022-08-31T17:39:31.295Z,33.75
2022-08-31T17:40:30.772Z,33.75
2022-08-31T17:41:30.649Z,33.75
2022-08-31T17:42:30.636Z,33.75
2022-08-31T17:43:30.644Z,33.75
2022-08-31T17:44:31.322Z,33.75
2022-08-31T17:45:30.831Z,28.12
2022-08-31T17:46:31.370Z,28.12
2022-08-31T17:47:30.580Z,28.12
2022-08-31T17:48:30.573Z,28.12
2022-08-31T17:49:30.564Z,28.12
2022-08-31T17:50:31.573Z,22.50
2022-08-31T17:51:30.541Z,22.50
2022-08-31T17:52:30.528Z,16.88
2022-08-31T17:53:30.519Z,16.88
2022-08-31T17:54:30.535Z,16.88
2022-08-31T17:55:30.518Z,16.88
2022-08-31T17:56:30.524Z,16.88
2022-08-31T17:57:30.480Z,16.88
2022-08-31T17:58:30.465Z,11.25
2022-08-31T17:59:30.455Z,11.25
2022-08-31T18:00:30.496Z,11.25
2022-08-31T18:01:30.438Z,11.25
2022-08-31T18:02:30.463Z,11.25
2022-08-31T18:03:30.512Z,11.25
2022-08-31T18:04:30.511Z,11.25
2022-08-31T18:05:30.400Z,11.25
2022-08-31T18:06:30.404Z,5.62
2022-08-31T18:07:30.364Z,5.62
2022-08-31T18:08:30.376Z,5.62
2022-08-31T18:09:30.346Z,5.62
2022-08-31T18:10:30.331Z,5.62
2022-08-31T18:11:30.350Z,5.62
2022-08-31T18:12:30.309Z,5.62
2022-08-31T18:13:30.298Z,5.62
2022-08-31T18:14:30.294Z,5.62
2022-08-31T18:15:30.281Z,5.62
2022-08-31T18:16:30.391Z,5.62
2022-08-31T18:17:30.248Z,0.00
2022-08-31T18:18:30.260Z,0.00
2022-08-31T18:19:30.225Z,0.00
2022-08-31T18:20:30.247Z,0.00
2022-08-31T18:21:30.206Z,0.00
2022-08-31T18:22:30.222Z,0.00
2022-08-31T18:23:32.812Z,0.00
2022-08-31T18:24:30.183Z,0.00
2022-08-31T18:25:30.164Z,0.00
2022-08-31T18:26:31.161Z,0.00
2022-08-31T18:27:30.160Z,0.00
2022-08-31T18:28:30.167Z,0.00
2022-08-31T18:29:30.118Z,0.00
2022-08-31T18:30:30.119Z,0.00
2022-08-31T18:31:30.169Z,0.00
2022-08-31T18:32:30.093Z,0.00
2022-08-31T18:33:30.088Z,0.00
2022-08-31T18:34:30.065Z,0.00
2022-08-31T18:35:30.067Z,0.00
2022-08-31T18:36:30.040Z,0.00
2022-08-31T18:37:30.039Z,0.00
2022-08-31T18:38:30.045Z,0.00
2022-08-31T18:39:50.527Z,0.00
2022-08-31T18:40:31.066Z,0.00
2022-08-31T18:41:29.989Z,0.00
2022-08-31T18:42:32.237Z,0.00
2022-08-31T18:43:29.963Z,0.00
2022-08-31T18:44:29.966Z,0.00
2022-08-31T18:45:29.969Z,0.00
2022-08-31T18:46:29.981Z,0.00
2022-08-31T18:47:29.921Z,0.00
2022-08-31T18:48:29.918Z,0.00
2022-08-31T18:49:29.901Z,0.00
2022-08-31T18:50:29.921Z,0.00
2022-08-31T18:51:30.878Z,0.00
2022-08-31T18:52:29.875Z,0.00
2022-08-31T18:53:30.207Z,0.00
2022-08-31T18:54:29.864Z,0.00
2022-08-31T18:55:29.840Z,0.00
2022-08-31T18:56:29.829Z,0.00
2022-08-31T18:57:29.832Z,0.00
2022-08-31T18:58:29.805Z,0.00
2022-08-31T18:59:29.801Z,0.00
2022-08-31T19:00:29.861Z,0.00
2022-08-31T19:01:33.659Z,0.00
2022-08-31T19:02:29.822Z,0.00
2022-08-31T19:03:29.746Z,0.00
2022-08-31T19:04:30.312Z,0.00
2022-08-31T19:05:29.733Z,0.00
2022-08-31T19:06:29.745Z,0.00
2022-08-31T19:07:29.727Z,0.00
2022-08-31T19:08:30.732Z,0.00
2022-08-31T19:09:29.678Z,0.00
2022-08-31T19:10:29.669Z,0.00
2022-08-31T19:11:29.653Z,0.00
2022-08-31T19:12:29.647Z,0.00
2022-08-31T19:13:29.659Z,0.00
2022-08-31T19:14:29.623Z,0.00
2022-08-31T19:15:35.223Z,0.00
2022-08-31T19:16:30.647Z,0.00
2022-08-31T19:17:29.606Z,0.00
2022-08-31T19:18:29.586Z,0.00
2022-08-31T19:19:29.573Z,0.00
2022-08-31T19:20:29.558Z,0.00
2022-08-31T19:21:29.536Z,0.00
2022-08-31T19:22:29.524Z,0.00
2022-08-31T19:23:29.511Z,0.00
2022-08-31T19:24:29.539Z,0.00
2022-08-31T19:25:30.315Z,0.00
2022-08-31T19:26:31.348Z,0.00
2022-08-31T19:27:29.466Z,0.00
2022-08-31T19:28:29.466Z,0.00
2022-08-31T19:29:29.462Z,0.00
2022-08-31T19:30:29.437Z,0.00
2022-08-31T19:31:29.504Z,0.00
2022-08-31T19:32:29.422Z,0.00
2022-08-31T19:33:29.410Z,0.00
2022-08-31T19:34:29.402Z,0.00
2022-08-31T19:35:29.447Z,0.00
2022-08-31T19:36:29.377Z,0.00
2022-08-31T19:37:29.405Z,0.00
2022-08-31T19:38:29.348Z,0.00
2022-08-31T19:39:29.339Z,0.00
2022-08-31T19:40:36.516Z,0.00
2022-08-31T19:41:30.348Z,0.00
2022-08-31T19:43:52.318Z,0.00
2022-08-31T19:44:54.267Z,0.00
2022-08-31T19:45:42.503Z,0.00
2022-08-31T19:46:30.303Z,0.00
2022-08-31T19:47:29.295Z,0.00
2022-08-31T19:48:29.257Z,0.00
2022-08-31T19:49:31.133Z,0.00
2022-08-31T19:50:29.246Z,0.00
2022-08-31T19:51:29.216Z,0.00
2022-08-31T19:52:29.928Z,0.00
2022-08-31T19:53:29.189Z,0.00
2022-08-31T19:54:31.290Z,0.00
2022-08-31T19:55:29.170Z,0.00
2022-08-31T19:56:29.184Z,0.00
2022-08-31T19:57:29.154Z,0.00
2022-08-31T19:58:29.141Z,0.00
2022-08-31T19:59:29.125Z,0.00
2022-08-31T20:00:29.111Z,0.00
2022-08-31T20:01:29.152Z,0.00
2022-08-31T20:02:29.248Z,0.00
2022-08-31T20:03:29.082Z,0.00
2022-08-31T20:04:29.073Z,0.00
2022-08-31T20:05:29.053Z,0.00
2022-08-31T20:06:29.048Z,0.00
2022-08-31T20:07:29.054Z,0.00
2022-08-31T20:08:29.047Z,0.00
2022-08-31T20:09:29.013Z,0.00
2022-08-31T20:10:35.827Z,0.00
2022-08-31T20:11:28.996Z,0.00
2022-08-31T20:12:28.976Z,0.00
2022-08-31T20:13:28.962Z,0.00
2022-08-31T20:14:29.367Z,0.00
2022-08-31T20:15:28.941Z,0.00
2022-08-31T20:16:33.689Z,0.00
2022-08-31T20:17:28.937Z,0.00
2022-08-31T20:18:28.915Z,0.00
2022-08-31T20:19:31.392Z,0.00
2022-08-31T20:20:28.908Z,0.00
2022-08-31T20:21:28.906Z,0.00
2022-08-31T20:22:29.767Z,0.00
2022-08-31T20:23:28.861Z,0.00
2022-08-31T20:24:28.843Z,0.00
2022-08-31T20:25:28.823Z,0.00
2022-08-31T20:26:35.426Z,0.00
2022-08-31T20:27:29.860Z,0.00
2022-08-31T20:28:28.801Z,0.00
2022-08-31T20:29:28.825Z,0.00
2022-08-31T20:30:28.781Z,0.00
2022-08-31T20:31:28.786Z,0.00
2022-08-31T20:32:28.774Z,0.00
2022-08-31T20:33:28.752Z,0.00
2022-08-31T20:34:28.731Z,0.00
2022-08-31T20:35:28.755Z,0.00
2022-08-31T20:36:28.718Z,0.00
2022-08-31T20:37:28.720Z,0.00
2022-08-31T20:38:28.686Z,0.00
2022-08-31T20:39:28.684Z,0.00
2022-08-31T20:40:28.769Z,0.00
2022-08-31T20:41:28.664Z,0.00
2022-08-31T20:42:28.866Z,0.00
2022-08-31T20:43:28.736Z,0.00
2022-08-31T20:44:28.632Z,0.00
2022-08-31T20:45:28.882Z,0.00
2022-08-31T20:46:28.661Z,0.00
2022-08-31T20:47:28.590Z,0.00
2022-08-31T20:48:28.570Z,0.00
2022-08-31T20:49:28.575Z,0.00
2022-08-31T20:50:29.333Z,0.00
2022-08-31T20:51:28.564Z,0.00
2022-08-31T20:52:28.525Z,0.00
2022-08-31T20:53:43.249Z,0.00
2022-08-31T20:54:29.514Z,0.00
2022-08-31T20:55:28.512Z,0.00
2022-08-31T20:56:28.484Z,0.00
2022-08-31T20:57:28.499Z,0.00
2022-08-31T20:58:28.454Z,0.00
2022-08-31T20:59:28.466Z,0.00
2022-08-31T21:00:28.856Z,0.00
2022-08-31T21:01:28.461Z,0.00
2022-08-31T21:02:28.486Z,0.00
2022-08-31T21:03:28.518Z,0.00
2022-08-31T21:04:28.401Z,0.00
2022-08-31T21:05:43.887Z,0.00
2022-08-31T21:06:29.374Z,0.00
2022-08-31T21:07:28.370Z,0.00
2022-08-31T21:08:28.357Z,0.00
2022-08-31T21:09:28.359Z,0.00
2022-08-31T21:10:37.229Z,0.00
2022-08-31T21:11:29.831Z,0.00
2022-08-31T21:12:28.314Z,0.00
2022-08-31T21:13:28.299Z,0.00
2022-08-31T21:14:28.322Z,0.00
2022-08-31T21:15:28.275Z,0.00
2022-08-31T21:16:28.318Z,0.00
2022-08-31T21:17:28.831Z,0.00
2022-08-31T21:18:28.250Z,0.00
2022-08-31T21:19:28.232Z,0.00
2022-08-31T21:20:28.250Z,0.00
2022-08-31T21:21:28.201Z,0.00
2022-08-31T21:22:28.213Z,0.00
2022-08-31T21:23:28.184Z,0.00
2022-08-31T21:24:28.175Z,0.00
2022-08-31T21:25:28.164Z,0.00
2022-08-31T21:26:28.166Z,0.00
2022-08-31T21:27:34.848Z,0.00
2022-08-31T21:28:28.155Z,0.00
2022-08-31T21:29:28.120Z,0.00
2022-08-31T21:30:28.117Z,0.00
2022-08-31T21:31:29.412Z,0.00
2022-08-31T21:32:28.375Z,0.00
2022-08-31T21:33:28.081Z,0.00
2022-08-31T21:34:28.068Z,0.00
2022-08-31T21:35:28.097Z,0.00
2022-08-31T21:36:28.068Z,0.00
2022-08-31T21:37:28.046Z,0.00
2022-08-31T21:38:28.021Z,0.00
2022-08-31T21:39:28.008Z,0.00
2022-08-31T21:40:28.090Z,0.00
2022-08-31T21:41:28.018Z,0.00
2022-08-31T21:42:27.984Z,0.00
2022-08-31T21:43:27.976Z,0.00
2022-08-31T21:45:44.742Z,0.00
2022-08-31T21:46:49.766Z,0.00
2022-08-31T21:47:45.714Z,0.00
2022-08-31T21:48:45.392Z,0.00
2022-08-31T21:49:44.796Z,0.00
2022-08-31T21:50:44.680Z,0.00
2022-08-31T21:51:44.686Z,0.00
2022-08-31T21:52:44.763Z,0.00
2022-08-31T21:53:47.334Z,0.00
2022-08-31T21:54:44.644Z,0.00
2022-08-31T21:55:44.622Z,0.00
2022-08-31T21:56:44.763Z,0.00
2022-08-31T21:57:44.623Z,0.00
2022-08-31T21:58:44.587Z,0.00
2022-08-31T21:59:44.584Z,0.00
2022-08-31T22:00:44.565Z,0.00
2022-08-31T22:01:45.521Z,0.00
2022-08-31T22:02:44.652Z,0.00
2022-08-31T22:03:44.535Z,0.00
2022-08-31T22:04:45.340Z,0.00
2022-08-31T22:05:45.360Z,0.00
2022-08-31T22:06:44.502Z,0.00
2022-08-31T22:07:44.603Z,0.00
2022-08-31T22:08:44.488Z,0.00
2022-08-31T22:09:44.463Z,0.00
2022-08-31T22:10:44.454Z,0.00
2022-08-31T22:11:45.345Z,0.00
2022-08-31T22:12:44.446Z,0.00
2022-08-31T22:13:44.874Z,0.00
2022-08-31T22:14:44.429Z,0.00
2022-08-31T22:15:44.423Z,0.00
2022-08-31T22:16:44.436Z,0.00
2022-08-31T22:18:04.800Z,0.00
2022-08-31T22:19:02.366Z,0.00
2022-08-31T22:19:45.379Z,0.00
2022-08-31T22:20:44.346Z,0.00
2022-08-31T22:21:44.337Z,0.00
2022-08-31T22:22:44.353Z,0.00
2022-08-31T22:23:44.311Z,0.00
2022-08-31T22:24:44.306Z,0.00
2022-08-31T22:25:44.302Z,0.00
2022-08-31T22:26:44.296Z,0.00
2022-08-31T22:27:44.284Z,0.00
2022-08-31T22:28:46.844Z,0.00
2022-08-31T22:29:44.246Z,0.00
2022-08-31T22:30:44.283Z,0.00
2022-08-31T22:31:44.290Z,0.00
2022-08-31T22:32:44.235Z,0.00
2022-08-31T22:33:47.437Z,0.00
2022-08-31T22:34:44.876Z,0.00
2022-08-31T22:35:44.846Z,0.00
2022-08-31T22:36:44.158Z,0.00
2022-08-31T22:37:45.186Z,0.00
2022-08-31T22:38:44.844Z,0.00
2022-08-31T22:39:44.852Z,0.00
2022-08-31T22:40:44.190Z,0.00
2022-08-31T22:41:44.108Z,0.00
2022-08-31T22:42:44.367Z,0.00
2022-08-31T22:43:44.082Z,0.00
2022-08-31T22:44:44.095Z,0.00
2022-08-31T22:45:48.106Z,0.00
2022-08-31T22:46:44.128Z,0.00
2022-08-31T22:47:49.864Z,0.00
2022-08-31T22:48:45.041Z,0.00
2022-08-31T22:49:45.339Z,0.00
2022-08-31T22:50:46.852Z,0.00
2022-08-31T22:51:44.002Z,0.00
2022-08-31T22:52:43.989Z,0.00
2022-08-31T22:53:43.980Z,0.00
2022-08-31T22:54:43.972Z,0.00
2022-08-31T22:55:43.967Z,0.00
2022-08-31T22:56:45.899Z,0.00
2022-08-31T22:57:43.928Z,0.00
2022-08-31T22:58:46.855Z,0.00
2022-08-31T22:59:43.924Z,0.00
2022-08-31T23:00:43.925Z,0.00